sensor_id;sensor_type;location;lat;lon;timestamp;pressure;altitude;pressure_sealevel;temperature;humidity
76046;BME280;64741;41.730;44.788;2023-05-20T00:02:08;989.9;;;24.5;47.4
76046;BME280;64741;41.730;44.788;2023-05-20T00:07:12;989.9;;;24.5;47.4
76046;BME280;64741;41.730;44.788;2023-05-20T00:12:10;989.9;;;24.5;47.5
76046;BME280;64741;41.730;44.788;2023-05-20T00:17:08;989.9;;;24.5;47.6
76046;BME280;64741;41.730;44.788;2023-05-20T00:22:08;989.8;;;24.5;47.6
76046;BME280;64741;41.730;44.788;2023-05-20T00:27:08;989.7;;;24.5;47.6
76046;BME280;64741;41.730;44.788;2023-05-20T00:32:08;989.6;;;24.5;47.6
76046;BME280;64741;41.730;44.788;2023-05-20T00:37:08;989.5;;;24.5;47.6
76046;BME280;64741;41.730;44.788;2023-05-20T00:42:10;989.4;;;24.5;47.6
76046;BME280;64741;41.730;44.788;2023-05-20T00:47:16;989.4;;;24.5;47.6
76046;BME280;64741;41.730;44.788;2023-05-20T00:52:14;989.4;;;24.4;47.6
76046;BME280;64741;41.730;44.788;2023-05-20T00:57:08;989.5;;;24.4;47.6
76046;BME280;64741;41.730;44.788;2023-05-20T01:02:10;989.5;;;24.4;47.5
76046;BME280;64741;41.730;44.788;2023-05-20T01:07:08;989.6;;;24.4;47.5
76046;BME280;64741;41.730;44.788;2023-05-20T01:12:16;989.6;;;24.4;47.5
76046;BME280;64741;41.730;44.788;2023-05-20T01:17:08;989.5;;;24.4;47.4
76046;BME280;64741;41.730;44.788;2023-05-20T01:22:08;989.5;;;24.4;47.4
76046;BME280;64741;41.730;44.788;2023-05-20T01:27:10;989.6;;;24.4;47.3
76046;BME280;64741;41.730;44.788;2023-05-20T01:32:14;989.6;;;24.4;47.3
76046;BME280;64741;41.730;44.788;2023-05-20T01:37:08;989.5;;;24.4;47.2
76046;BME280;64741;41.730;44.788;2023-05-20T01:42:10;989.6;;;24.4;47.1
76046;BME280;64741;41.730;44.788;2023-05-20T01:47:10;989.6;;;24.4;47.1
76046;BME280;64741;41.730;44.788;2023-05-20T01:52:08;989.6;;;24.4;47.1
76046;BME280;64741;41.730;44.788;2023-05-20T01:57:08;989.7;;;24.4;47.1
76046;BME280;64741;41.730;44.788;2023-05-20T02:02:16;989.7;;;24.4;47
76046;BME280;64741;41.730;44.788;2023-05-20T02:07:12;989.8;;;24.4;47.2
76046;BME280;64741;41.730;44.788;2023-05-20T02:12:10;990;;;24.4;47.2
76046;BME280;64741;41.730;44.788;2023-05-20T02:17:16;990.1;;;24.4;47.3
76046;BME280;64741;41.730;44.788;2023-05-20T02:22:10;990.2;;;24.4;47.2
76046;BME280;64741;41.730;44.788;2023-05-20T02:27:14;990.2;;;24.4;47.3
76046;BME280;64741;41.730;44.788;2023-05-20T02:32:08;990.2;;;24.4;47.2
76046;BME280;64741;41.730;44.788;2023-05-20T02:37:16;990.3;;;24.4;47.2
76046;BME280;64741;41.730;44.788;2023-05-20T02:42:08;990.4;;;24.4;47.2
76046;BME280;64741;41.730;44.788;2023-05-20T02:46:46;990.4;;;24.4;47.2
76046;BME280;64741;41.730;44.788;2023-05-20T02:52:08;990.4;;;24.4;47.3
76046;BME280;64741;41.730;44.788;2023-05-20T02:57:08;990.5;;;24.4;47.3
76046;BME280;64741;41.730;44.788;2023-05-20T03:02:16;990.5;;;24.4;47.4
76046;BME280;64741;41.730;44.788;2023-05-20T03:07:16;990.5;;;24.4;47.4
76046;BME280;64741;41.730;44.788;2023-05-20T03:12:08;990.4;;;24.4;47.4
76046;BME280;64741;41.730;44.788;2023-05-20T03:17:08;990.3;;;24.4;47.3
76046;BME280;64741;41.730;44.788;2023-05-20T03:22:10;990.3;;;24.4;47.3
76046;BME280;64741;41.730;44.788;2023-05-20T03:27:08;990.2;;;24.4;47.2
76046;BME280;64741;41.730;44.788;2023-05-20T03:32:16;990.1;;;24.4;47.2
76046;BME280;64741;41.730;44.788;2023-05-20T03:37:08;990;;;24.4;47.2
76046;BME280;64741;41.730;44.788;2023-05-20T03:42:08;989.9;;;24.4;47.2
76046;BME280;64741;41.730;44.788;2023-05-20T03:47:10;989.9;;;24.4;47.2
76046;BME280;64741;41.730;44.788;2023-05-20T03:52:16;989.9;;;24.4;47.2
76046;BME280;64741;41.730;44.788;2023-05-20T03:57:06;989.9;;;24.4;47.2
76046;BME280;64741;41.730;44.788;2023-05-20T04:02:08;990;;;24.4;47.2
76046;BME280;64741;41.730;44.788;2023-05-20T04:06:52;990;;;24.4;47.3
76046;BME280;64741;41.730;44.788;2023-05-20T04:12:16;990;;;24.4;47.3
76046;BME280;64741;41.730;44.788;2023-05-20T04:17:14;990.1;;;24.4;47.3
76046;BME280;64741;41.730;44.788;2023-05-20T04:22:16;990.1;;;24.4;47.3
76046;BME280;64741;41.730;44.788;2023-05-20T04:27:10;990.1;;;24.4;47.3
76046;BME280;64741;41.730;44.788;2023-05-20T04:32:06;990.1;;;24.4;47.4
76046;BME280;64741;41.730;44.788;2023-05-20T04:37:10;990.1;;;24.4;47.3
76046;BME280;64741;41.730;44.788;2023-05-20T04:42:08;990.1;;;24.4;47.3
76046;BME280;64741;41.730;44.788;2023-05-20T04:47:16;990.1;;;24.4;47.2
76046;BME280;64741;41.730;44.788;2023-05-20T04:52:02;990;;;24.4;47.3
76046;BME280;64741;41.730;44.788;2023-05-20T04:57:14;990.1;;;24.4;47.3
76046;BME280;64741;41.730;44.788;2023-05-20T05:02:10;990.1;;;24.4;47.3
76046;BME280;64741;41.730;44.788;2023-05-20T05:07:16;990.1;;;24.4;47.5
76046;BME280;64741;41.730;44.788;2023-05-20T05:12:08;990.1;;;24.4;47.5
76046;BME280;64741;41.730;44.788;2023-05-20T05:17:08;990.1;;;24.4;47.5
76046;BME280;64741;41.730;44.788;2023-05-20T05:22:08;990;;;24.4;47.6
76046;BME280;64741;41.730;44.788;2023-05-20T05:27:06;990;;;24.4;47.5
76046;BME280;64741;41.730;44.788;2023-05-20T05:32:16;989.9;;;24.4;47.5
76046;BME280;64741;41.730;44.788;2023-05-20T05:37:16;989.9;;;24.4;47.5
76046;BME280;64741;41.730;44.788;2023-05-20T05:42:10;989.9;;;24.4;47.5
76046;BME280;64741;41.730;44.788;2023-05-20T05:47:10;989.9;;;24.5;47.6
76046;BME280;64741;41.730;44.788;2023-05-20T05:52:12;989.9;;;24.5;47.7
76046;BME280;64741;41.730;44.788;2023-05-20T05:57:10;989.9;;;24.5;47.7
76046;BME280;64741;41.730;44.788;2023-05-20T06:02:16;989.9;;;24.5;47.5
76046;BME280;64741;41.730;44.788;2023-05-20T06:07:08;989.9;;;24.5;47.3
76046;BME280;64741;41.730;44.788;2023-05-20T06:12:08;989.9;;;24.5;47.2
76046;BME280;64741;41.730;44.788;2023-05-20T06:17:10;989.9;;;24.5;47.1
76046;BME280;64741;41.730;44.788;2023-05-20T06:22:14;989.9;;;24.5;47.1
76046;BME280;64741;41.730;44.788;2023-05-20T06:27:02;990;;;24.5;47.1
76046;BME280;64741;41.730;44.788;2023-05-20T06:32:08;990;;;24.5;46.9
76046;BME280;64741;41.730;44.788;2023-05-20T06:37:08;990;;;24.5;47
76046;BME280;64741;41.730;44.788;2023-05-20T06:41:46;990.1;;;24.4;46.9
76046;BME280;64741;41.730;44.788;2023-05-20T06:47:15;990.2;;;24.5;47
76046;BME280;64741;41.730;44.788;2023-05-20T06:52:16;990.2;;;24.4;46.9
76046;BME280;64741;41.730;44.788;2023-05-20T06:57:10;990.1;;;24.5;46.9
76046;BME280;64741;41.730;44.788;2023-05-20T07:02:06;990.2;;;24.4;46.9
76046;BME280;64741;41.730;44.788;2023-05-20T07:06:52;990.2;;;24.4;46.9
76046;BME280;64741;41.730;44.788;2023-05-20T07:11:56;990.2;;;24.4;46.9
76046;BME280;64741;41.730;44.788;2023-05-20T07:17:14;990.2;;;24.4;46.9
76046;BME280;64741;41.730;44.788;2023-05-20T07:22:08;990.2;;;24.4;46.9
76046;BME280;64741;41.730;44.788;2023-05-20T07:27:14;990.2;;;24.4;46.9
76046;BME280;64741;41.730;44.788;2023-05-20T07:32:08;990.2;;;24.4;46.9
76046;BME280;64741;41.730;44.788;2023-05-20T07:37:16;990.2;;;24.4;46.8
76046;BME280;64741;41.730;44.788;2023-05-20T07:42:08;990.2;;;24.4;46.9
76046;BME280;64741;41.730;44.788;2023-05-20T07:47:08;990.3;;;24.4;46.8
76046;BME280;64741;41.730;44.788;2023-05-20T07:52:08;990.3;;;24.4;46.8
76046;BME280;64741;41.730;44.788;2023-05-20T07:57:08;990.3;;;24.4;46.8
76046;BME280;64741;41.730;44.788;2023-05-20T08:02:00;990.3;;;24.4;46.8
76046;BME280;64741;41.730;44.788;2023-05-20T08:07:16;990.3;;;24.4;46.8
76046;BME280;64741;41.730;44.788;2023-05-20T08:12:08;990.3;;;24.4;46.8
76046;BME280;64741;41.730;44.788;2023-05-20T08:17:06;990.3;;;24.4;46.8
76046;BME280;64741;41.730;44.788;2023-05-20T08:22:10;990.3;;;24.4;46.8
76046;BME280;64741;41.730;44.788;2023-05-20T08:27:06;990.3;;;24.4;46.8
76046;BME280;64741;41.730;44.788;2023-05-20T08:32:16;990.3;;;24.4;46.8
76046;BME280;64741;41.730;44.788;2023-05-20T08:37:08;990.3;;;24.4;46.8
76046;BME280;64741;41.730;44.788;2023-05-20T08:42:10;990.2;;;24.4;46.7
76046;BME280;64741;41.730;44.788;2023-05-20T08:47:10;990.1;;;24.4;46.8
76046;BME280;64741;41.730;44.788;2023-05-20T08:52:15;990.1;;;24.4;46.8
76046;BME280;64741;41.730;44.788;2023-05-20T08:57:06;990;;;24.4;46.7
76046;BME280;64741;41.730;44.788;2023-05-20T09:02:08;990;;;24.4;46.7
76046;BME280;64741;41.730;44.788;2023-05-20T09:07:06;990;;;24.4;46.7
76046;BME280;64741;41.730;44.788;2023-05-20T09:12:16;990;;;24.4;46.7
76046;BME280;64741;41.730;44.788;2023-05-20T09:17:16;989.9;;;24.4;46.7
76046;BME280;64741;41.730;44.788;2023-05-20T09:22:14;989.8;;;24.4;46.7
76046;BME280;64741;41.730;44.788;2023-05-20T09:27:10;989.8;;;24.4;46.7
76046;BME280;64741;41.730;44.788;2023-05-20T09:32:06;989.7;;;24.4;46.8
76046;BME280;64741;41.730;44.788;2023-05-20T09:37:08;989.6;;;24.4;46.9
76046;BME280;64741;41.730;44.788;2023-05-20T09:42:10;989.5;;;24.4;47.3
76046;BME280;64741;41.730;44.788;2023-05-20T09:47:12;989.5;;;24.4;47.7
76046;BME280;64741;41.730;44.788;2023-05-20T09:52:08;989.4;;;24.4;47.7
76046;BME280;64741;41.730;44.788;2023-05-20T09:57:14;989.4;;;24.4;47.7
76046;BME280;64741;41.730;44.788;2023-05-20T10:02:08;989.4;;;24.4;47.8
76046;BME280;64741;41.730;44.788;2023-05-20T10:07:18;989.4;;;24.4;47.8
76046;BME280;64741;41.730;44.788;2023-05-20T10:12:11;989.4;;;24.5;47.7
76046;BME280;64741;41.730;44.788;2023-05-20T10:17:09;989.4;;;24.5;47.7
76046;BME280;64741;41.730;44.788;2023-05-20T10:22:07;989.3;;;24.5;47.7
76046;BME280;64741;41.730;44.788;2023-05-20T10:27:09;989.2;;;24.5;47.6
76046;BME280;64741;41.730;44.788;2023-05-20T10:32:24;989.1;;;24.4;47.6
76046;BME280;64741;41.730;44.788;2023-05-20T10:37:20;989;;;24.4;47.6
76046;BME280;64741;41.730;44.788;2023-05-20T10:42:09;989;;;24.4;47.6
76046;BME280;64741;41.730;44.788;2023-05-20T10:47:08;989;;;24.4;47.6
76046;BME280;64741;41.730;44.788;2023-05-20T10:52:10;989;;;24.4;47.6
76046;BME280;64741;41.730;44.788;2023-05-20T10:57:06;989;;;24.4;47.6
76046;BME280;64741;41.730;44.788;2023-05-20T11:02:16;988.9;;;24.4;47.6
76046;BME280;64741;41.730;44.788;2023-05-20T11:07:08;989;;;24.5;47.6
76046;BME280;64741;41.730;44.788;2023-05-20T11:12:02;989;;;24.5;47.5
76046;BME280;64741;41.730;44.788;2023-05-20T11:17:10;988.9;;;24.5;47.5
76046;BME280;64741;41.730;44.788;2023-05-20T11:21:32;988.9;;;24.4;47.5
76046;BME280;64741;41.730;44.788;2023-05-20T11:27:10;988.8;;;24.5;47.5
76046;BME280;64741;41.730;44.788;2023-05-20T11:32:08;988.8;;;24.5;47.5
76046;BME280;64741;41.730;44.788;2023-05-20T11:36:55;988.8;;;24.5;47.5
76046;BME280;64741;41.730;44.788;2023-05-20T11:42:08;988.9;;;24.5;47.6
76046;BME280;64741;41.730;44.788;2023-05-20T11:47:10;988.9;;;24.4;47.5
76046;BME280;64741;41.730;44.788;2023-05-20T11:52:16;988.9;;;24.5;47.6
76046;BME280;64741;41.730;44.788;2023-05-20T11:57:17;988.9;;;24.5;47.5
76046;BME280;64741;41.730;44.788;2023-05-20T12:02:06;988.9;;;24.5;47.6
76046;BME280;64741;41.730;44.788;2023-05-20T12:07:08;988.9;;;24.4;47.6
76046;BME280;64741;41.730;44.788;2023-05-20T12:12:08;988.9;;;24.4;47.7
76046;BME280;64741;41.730;44.788;2023-05-20T12:17:16;988.9;;;24.4;47.7
76046;BME280;64741;41.730;44.788;2023-05-20T12:22:08;989;;;24.4;47.7
76046;BME280;64741;41.730;44.788;2023-05-20T12:27:08;988.9;;;24.4;47.8
76046;BME280;64741;41.730;44.788;2023-05-20T12:32:08;989;;;24.4;47.9
76046;BME280;64741;41.730;44.788;2023-05-20T12:37:10;989;;;24.4;47.9
76046;BME280;64741;41.730;44.788;2023-05-20T12:42:08;989;;;24.4;47.9
76046;BME280;64741;41.730;44.788;2023-05-20T12:47:08;989;;;24.4;48
76046;BME280;64741;41.730;44.788;2023-05-20T12:52:08;989.1;;;24.4;48
76046;BME280;64741;41.730;44.788;2023-05-20T12:57:08;989;;;24.4;47.9
76046;BME280;64741;41.730;44.788;2023-05-20T13:02:10;989.1;;;24.4;48
76046;BME280;64741;41.730;44.788;2023-05-20T13:07:12;989;;;24.4;47.9
76046;BME280;64741;41.730;44.788;2023-05-20T13:12:10;989;;;24.4;47.9
76046;BME280;64741;41.730;44.788;2023-05-20T13:17:04;989;;;24.4;48
76046;BME280;64741;41.730;44.788;2023-05-20T13:22:10;988.9;;;24.4;48
76046;BME280;64741;41.730;44.788;2023-05-20T13:27:04;988.8;;;24.4;48.1
76046;BME280;64741;41.730;44.788;2023-05-20T13:32:16;988.8;;;24.4;48.1
76046;BME280;64741;41.730;44.788;2023-05-20T13:37:08;988.7;;;24.4;48.2
76046;BME280;64741;41.730;44.788;2023-05-20T13:42:16;988.7;;;24.4;48.3
76046;BME280;64741;41.730;44.788;2023-05-20T13:47:10;988.7;;;24.4;48.4
76046;BME280;64741;41.730;44.788;2023-05-20T13:52:08;988.7;;;24.4;48.3
76046;BME280;64741;41.730;44.788;2023-05-20T13:57:10;988.6;;;24.4;48.4
76046;BME280;64741;41.730;44.788;2023-05-20T14:02:10;988.6;;;24.4;48.4
76046;BME280;64741;41.730;44.788;2023-05-20T14:07:10;988.5;;;24.4;48.5
76046;BME280;64741;41.730;44.788;2023-05-20T14:12:10;988.4;;;24.4;48.5
76046;BME280;64741;41.730;44.788;2023-05-20T14:17:12;988.4;;;24.4;48.6
76046;BME280;64741;41.730;44.788;2023-05-20T14:22:14;988.5;;;24.4;48.6
76046;BME280;64741;41.730;44.788;2023-05-20T14:27:16;988.5;;;24.4;48.7
76046;BME280;64741;41.730;44.788;2023-05-20T14:32:08;988.5;;;24.4;48.8
76046;BME280;64741;41.730;44.788;2023-05-20T14:37:10;988.5;;;24.4;49.1
76046;BME280;64741;41.730;44.788;2023-05-20T14:42:08;988.5;;;24.5;49.8
76046;BME280;64741;41.730;44.788;2023-05-20T14:47:14;988.5;;;24.5;50.8
76046;BME280;64741;41.730;44.788;2023-05-20T14:52:08;988.5;;;24.5;51.4
76046;BME280;64741;41.730;44.788;2023-05-20T14:57:08;988.5;;;24.6;52.1
76046;BME280;64741;41.730;44.788;2023-05-20T15:02:10;988.5;;;24.6;52
76046;BME280;64741;41.730;44.788;2023-05-20T15:06:54;988.5;;;24.6;52.1
76046;BME280;64741;41.730;44.788;2023-05-20T15:12:08;988.5;;;24.6;51.8
76046;BME280;64741;41.730;44.788;2023-05-20T15:17:08;988.5;;;24.6;51.5
76046;BME280;64741;41.730;44.788;2023-05-20T15:22:08;988.6;;;24.6;51.4
76046;BME280;64741;41.730;44.788;2023-05-20T15:27:08;988.7;;;24.6;51.1
76046;BME280;64741;41.730;44.788;2023-05-20T15:32:10;988.7;;;24.6;51.1
76046;BME280;64741;41.730;44.788;2023-05-20T15:37:08;988.8;;;24.6;51
76046;BME280;64741;41.730;44.788;2023-05-20T15:42:08;988.9;;;24.6;50.9
76046;BME280;64741;41.730;44.788;2023-05-20T15:47:08;989;;;24.6;50.5
76046;BME280;64741;41.730;44.788;2023-05-20T15:52:16;989.1;;;24.6;50.5
76046;BME280;64741;41.730;44.788;2023-05-20T15:57:08;989.1;;;24.6;50.3
76046;BME280;64741;41.730;44.788;2023-05-20T16:02:14;989.1;;;24.6;50.2
76046;BME280;64741;41.730;44.788;2023-05-20T16:07:10;989.2;;;24.6;50.2
76046;BME280;64741;41.730;44.788;2023-05-20T16:12:15;989.2;;;24.6;50
76046;BME280;64741;41.730;44.788;2023-05-20T16:17:06;989.2;;;24.6;49.8
76046;BME280;64741;41.730;44.788;2023-05-20T16:22:08;989.3;;;24.5;49.8
76046;BME280;64741;41.730;44.788;2023-05-20T16:27:09;989.3;;;24.5;49.7
76046;BME280;64741;41.730;44.788;2023-05-20T16:32:02;989.4;;;24.5;49.7
76046;BME280;64741;41.730;44.788;2023-05-20T16:37:16;989.4;;;24.5;49.6
76046;BME280;64741;41.730;44.788;2023-05-20T16:42:12;989.3;;;24.5;49.6
76046;BME280;64741;41.730;44.788;2023-05-20T16:47:08;989.3;;;24.5;49.5
76046;BME280;64741;41.730;44.788;2023-05-20T16:52:08;989.3;;;24.5;49.5
76046;BME280;64741;41.730;44.788;2023-05-20T16:57:11;989.2;;;24.5;49.5
76046;BME280;64741;41.730;44.788;2023-05-20T17:02:06;989.2;;;24.5;49.4
76046;BME280;64741;41.730;44.788;2023-05-20T17:07:14;989.3;;;24.5;49.4
76046;BME280;64741;41.730;44.788;2023-05-20T17:12:06;989.4;;;24.5;49.4
76046;BME280;64741;41.730;44.788;2023-05-20T17:17:08;989.4;;;24.5;49.5
76046;BME280;64741;41.730;44.788;2023-05-20T17:22:08;989.5;;;24.5;49.5
76046;BME280;64741;41.730;44.788;2023-05-20T17:27:14;989.6;;;24.5;49.5
76046;BME280;64741;41.730;44.788;2023-05-20T17:32:06;989.6;;;24.5;49.5
76046;BME280;64741;41.730;44.788;2023-05-20T17:37:08;989.6;;;24.5;49.6
76046;BME280;64741;41.730;44.788;2023-05-20T17:42:09;989.7;;;24.5;49.7
76046;BME280;64741;41.730;44.788;2023-05-20T17:47:14;989.7;;;24.5;50
76046;BME280;64741;41.730;44.788;2023-05-20T17:52:12;989.6;;;24.5;50
76046;BME280;64741;41.730;44.788;2023-05-20T17:57:16;989.5;;;24.5;50
76046;BME280;64741;41.730;44.788;2023-05-20T18:02:08;989.5;;;24.5;49.9
76046;BME280;64741;41.730;44.788;2023-05-20T18:07:06;989.6;;;24.5;49.8
76046;BME280;64741;41.730;44.788;2023-05-20T18:12:08;989.6;;;24.5;49.6
76046;BME280;64741;41.730;44.788;2023-05-20T18:17:08;989.5;;;24.5;49.6
76046;BME280;64741;41.730;44.788;2023-05-20T18:22:16;989.5;;;24.5;49.5
76046;BME280;64741;41.730;44.788;2023-05-20T18:27:09;989.3;;;24.5;49.4
76046;BME280;64741;41.730;44.788;2023-05-20T18:32:12;989.1;;;24.5;49.3
76046;BME280;64741;41.730;44.788;2023-05-20T18:37:10;989;;;24.5;49.2
76046;BME280;64741;41.730;44.788;2023-05-20T18:42:16;989;;;24.5;49.2
76046;BME280;64741;41.730;44.788;2023-05-20T18:47:02;989.1;;;24.5;49.1
76046;BME280;64741;41.730;44.788;2023-05-20T18:52:08;989;;;24.5;49.1
76046;BME280;64741;41.730;44.788;2023-05-20T18:57:08;989.1;;;24.5;49.1
76046;BME280;64741;41.730;44.788;2023-05-20T19:02:08;989.1;;;24.5;49
76046;BME280;64741;41.730;44.788;2023-05-20T19:07:16;989.1;;;24.5;49
76046;BME280;64741;41.730;44.788;2023-05-20T19:12:14;989.1;;;24.5;48.9
76046;BME280;64741;41.730;44.788;2023-05-20T19:17:08;989.2;;;24.5;48.9
76046;BME280;64741;41.730;44.788;2023-05-20T19:22:06;989.3;;;24.4;48.9
76046;BME280;64741;41.730;44.788;2023-05-20T19:27:08;989.4;;;24.5;48.9
76046;BME280;64741;41.730;44.788;2023-05-20T19:31:44;989.3;;;24.5;48.8
76046;BME280;64741;41.730;44.788;2023-05-20T19:37:16;989.2;;;24.4;48.8
76046;BME280;64741;41.730;44.788;2023-05-20T19:42:08;989.2;;;24.4;48.8
76046;BME280;64741;41.730;44.788;2023-05-20T19:47:08;989;;;24.4;48.7
76046;BME280;64741;41.730;44.788;2023-05-20T19:51:54;988.9;;;24.4;48.7
76046;BME280;64741;41.730;44.788;2023-05-20T19:56:58;988.8;;;24.4;48.7
76046;BME280;64741;41.730;44.788;2023-05-20T20:02:06;988.8;;;24.4;48.7
76046;BME280;64741;41.730;44.788;2023-05-20T20:07:08;988.9;;;24.4;48.7
76046;BME280;64741;41.730;44.788;2023-05-20T20:12:08;988.7;;;24.4;48.6
76046;BME280;64741;41.730;44.788;2023-05-20T20:16:57;988.7;;;24.4;48.6
76046;BME280;64741;41.730;44.788;2023-05-20T20:22:11;988.7;;;24.4;48.5
76046;BME280;64741;41.730;44.788;2023-05-20T20:27:16;988.7;;;24.4;48.5
76046;BME280;64741;41.730;44.788;2023-05-20T20:32:14;988.7;;;24.4;48.4
76046;BME280;64741;41.730;44.788;2023-05-20T20:37:08;988.5;;;24.4;48.4
76046;BME280;64741;41.730;44.788;2023-05-20T20:42:08;988.4;;;24.4;48.4
76046;BME280;64741;41.730;44.788;2023-05-20T20:47:08;988.4;;;24.4;48.4
76046;BME280;64741;41.730;44.788;2023-05-20T20:52:14;988.4;;;24.4;48.3
76046;BME280;64741;41.730;44.788;2023-05-20T20:57:08;988.3;;;24.4;48.3
76046;BME280;64741;41.730;44.788;2023-05-20T21:02:08;988.3;;;24.4;48.2
76046;BME280;64741;41.730;44.788;2023-05-20T21:07:08;988.3;;;24.4;48.2
76046;BME280;64741;41.730;44.788;2023-05-20T21:11:50;988.3;;;24.4;48.2
76046;BME280;64741;41.730;44.788;2023-05-20T21:17:06;988.3;;;24.4;48.2
76046;BME280;64741;41.730;44.788;2023-05-20T21:22:08;988.3;;;24.4;48.2
76046;BME280;64741;41.730;44.788;2023-05-20T21:27:07;988.3;;;24.4;48.3
76046;BME280;64741;41.730;44.788;2023-05-20T21:31:52;988.2;;;24.4;48.2
76046;BME280;64741;41.730;44.788;2023-05-20T21:37:10;988.2;;;24.4;48.2
76046;BME280;64741;41.730;44.788;2023-05-20T21:42:13;988.2;;;24.4;48.1
76046;BME280;64741;41.730;44.788;2023-05-20T21:46:52;988.2;;;24.4;48.1
76046;BME280;64741;41.730;44.788;2023-05-20T21:52:09;988.2;;;24.4;48.1
76046;BME280;64741;41.730;44.788;2023-05-20T21:57:10;988.2;;;24.4;48
76046;BME280;64741;41.730;44.788;2023-05-20T22:02:09;988.1;;;24.4;48.1
76046;BME280;64741;41.730;44.788;2023-05-20T22:07:15;988.1;;;24.4;48
76046;BME280;64741;41.730;44.788;2023-05-20T22:12:08;988;;;24.3;48
76046;BME280;64741;41.730;44.788;2023-05-20T22:17:15;988;;;24.3;48
76046;BME280;64741;41.730;44.788;2023-05-20T22:22:11;988.1;;;24.3;48
76046;BME280;64741;41.730;44.788;2023-05-20T22:27:11;988.2;;;24.3;47.9
76046;BME280;64741;41.730;44.788;2023-05-20T22:32:11;988.3;;;24.3;47.9
76046;BME280;64741;41.730;44.788;2023-05-20T22:37:07;988.3;;;24.3;47.9
76046;BME280;64741;41.730;44.788;2023-05-20T22:42:09;988.4;;;24.3;47.8
76046;BME280;64741;41.730;44.788;2023-05-20T22:47:09;988.4;;;24.3;47.8
76046;BME280;64741;41.730;44.788;2023-05-20T22:52:11;988.4;;;24.3;47.8
76046;BME280;64741;41.730;44.788;2023-05-20T22:57:15;988.4;;;24.3;47.8
76046;BME280;64741;41.730;44.788;2023-05-20T23:02:17;988.4;;;24.3;47.8
76046;BME280;64741;41.730;44.788;2023-05-20T23:07:07;988.5;;;24.3;47.8
76046;BME280;64741;41.730;44.788;2023-05-20T23:12:11;988.5;;;24.3;48
76046;BME280;64741;41.730;44.788;2023-05-20T23:17:09;988.4;;;24.3;48.2
76046;BME280;64741;41.730;44.788;2023-05-20T23:22:15;988.4;;;24.4;48.2
76046;BME280;64741;41.730;44.788;2023-05-20T23:27:09;988.4;;;24.4;48.2
76046;BME280;64741;41.730;44.788;2023-05-20T23:32:09;988.4;;;24.4;48.2
76046;BME280;64741;41.730;44.788;2023-05-20T23:37:11;988.4;;;24.4;48.2
76046;BME280;64741;41.730;44.788;2023-05-20T23:42:11;988.3;;;24.4;48.2
76046;BME280;64741;41.730;44.788;2023-05-20T23:47:09;988.2;;;24.4;48.2
76046;BME280;64741;41.730;44.788;2023-05-20T23:52:09;988.1;;;24.4;48.1
76046;BME280;64741;41.730;44.788;2023-05-20T23:57:07;988.1;;;24.4;48.1
